Time;durP1;ratioP1;P1;durP2;ratioP2;P2;SDS_P1;SDS_P2;PMS_P1;PMS_P2;Temp;Humidity;BMP_temperature;BMP_pressure;BME280_temperature;BME280_humidity;BME280_pressure;Samples;Min_cycle;Max_cycle;Signal;HPM_P1;HPM_P2
2022/07/31 00:02:43;;;;;;;4.13;0.75;;;20.80;92.10;;;;;;10309546;28;20178;-60
2022/07/31 00:07:45;;;;;;;2.50;0.57;;;20.80;92.80;;;;;;10290772;28;20054;-60
2022/07/31 00:12:46;;;;;;;0.93;0.60;;;20.90;92.10;;;;;;10300353;28;20054;-60
2022/07/31 00:17:48;;;;;;;0.80;0.50;;;20.90;91.90;;;;;;10300605;28;20433;-59
2022/07/31 00:22:50;;;;;;;1.48;0.40;;;20.80;91.70;;;;;;10310154;28;20046;-60
2022/07/31 00:27:52;;;;;;;2.75;0.60;;;20.80;91.90;;;;;;10299691;28;20054;-59
2022/07/31 00:32:54;;;;;;;2.45;0.55;;;20.80;92.20;;;;;;10302808;28;20121;-59
2022/07/31 00:37:55;;;;;;;1.35;0.65;;;20.80;92.30;;;;;;10299687;28;20470;-59
2022/07/31 00:43:17;;;;;;;0.93;0.50;;;20.80;92.40;;;;;;10300635;28;20133;-60
2022/07/31 00:48:19;;;;;;;3.60;0.70;;;20.80;92.20;;;;;;10300672;28;20062;-59
2022/07/31 00:53:21;;;;;;;2.05;0.80;;;20.70;92.60;;;;;;10312473;28;20061;-59
2022/07/31 00:58:23;;;;;;;1.00;0.47;;;20.60;92.90;;;;;;10282991;28;20437;-59
2022/07/31 01:03:24;;;;;;;0.85;0.57;;;20.70;92.40;;;;;;10307464;28;20458;-59
2022/07/31 01:08:26;;;;;;;1.35;0.55;;;20.60;92.50;;;;;;10295619;28;20051;-60
2022/07/31 01:13:49;;;;;;;1.05;0.60;;;20.70;92.50;;;;;;10318999;28;20501;-60
2022/07/31 01:18:54;;;;;;;2.15;0.60;;;20.70;92.70;;;;;;10308448;28;20046;-58
2022/07/31 01:24:34;;;;;;;2.88;0.82;;;20.60;93.50;;;;;;10317487;28;20046;-59
2022/07/31 01:29:45;;;;;;;1.20;0.68;;;20.50;94.00;;;;;;10305997;28;20058;-58
2022/07/31 01:34:51;;;;;;;2.17;0.60;;;20.40;94.70;;;;;;10315979;28;20054;-59
2022/07/31 01:39:59;;;;;;;3.13;0.70;;;20.40;96.10;;;;;;10323321;28;20136;-59
2022/07/31 01:45:03;;;;;;;0.70;0.57;;;20.30;96.60;;;;;;10318671;28;20449;-59
2022/07/31 01:50:07;;;;;;;4.07;0.70;;;20.30;96.40;;;;;;10315336;28;20133;-60
2022/07/31 01:55:17;;;;;;;1.73;0.70;;;20.20;96.10;;;;;;10301986;28;20397;-60
2022/07/31 02:00:18;;;;;;;1.00;0.65;;;20.10;96.60;;;;;;10312000;28;20061;-60
2022/07/31 02:05:36;;;;;;;0.63;0.47;;;20.10;96.90;;;;;;10311626;28;20109;-59
2022/07/31 02:10:39;;;;;;;1.52;0.80;;;20.00;97.00;;;;;;10289668;28;20100;-60
2022/07/31 02:15:41;;;;;;;3.78;0.68;;;20.10;97.20;;;;;;10283805;28;20437;-60
2022/07/31 02:20:45;;;;;;;2.95;0.70;;;20.00;97.00;;;;;;10286212;28;20038;-60
2022/07/31 02:25:47;;;;;;;3.00;1.25;;;20.00;97.00;;;;;;10279698;28;20088;-60
2022/07/31 02:30:51;;;;;;;2.22;0.60;;;19.80;97.10;;;;;;10286670;28;20062;-60
2022/07/31 02:35:55;;;;;;;2.22;1.00;;;19.80;97.40;;;;;;10273840;28;20047;-60
2022/07/31 02:40:58;;;;;;;1.40;0.68;;;19.80;97.60;;;;;;10284108;28;20047;-59
2022/07/31 02:46:01;;;;;;;3.33;0.60;;;19.70;98.00;;;;;;10274916;28;20059;-59
2022/07/31 02:51:04;;;;;;;1.88;0.60;;;19.60;98.50;;;;;;10296251;28;20046;-59
2022/07/31 02:56:08;;;;;;;3.08;0.70;;;19.50;98.80;;;;;;10295456;28;20051;-60
2022/07/31 03:01:09;;;;;;;0.80;0.60;;;19.50;99.00;;;;;;10282751;28;20055;-59
2022/07/31 03:06:11;;;;;;;1.80;0.80;;;19.40;99.50;;;;;;10295584;28;20150;-59
2022/07/31 03:11:13;;;;;;;4.25;0.60;;;19.30;99.90;;;;;;10268304;28;20047;-59
2022/07/31 03:16:16;;;;;;;3.33;0.70;;;19.20;99.90;;;;;;10240835;28;20046;-60
2022/07/31 03:21:19;;;;;;;1.05;0.60;;;19.20;99.90;;;;;;10252323;28;20351;-59
2022/07/31 03:26:21;;;;;;;6.32;0.73;;;19.00;99.90;;;;;;10264892;28;20446;-59
2022/07/31 03:31:24;;;;;;;1.45;0.68;;;18.90;99.90;;;;;;10262202;28;20047;-61
2022/07/31 03:36:26;;;;;;;1.38;0.60;;;18.80;99.90;;;;;;10267057;28;20110;-59
2022/07/31 03:41:27;;;;;;;1.05;0.60;;;18.70;99.90;;;;;;10262067;28;20050;-59
2022/07/31 03:46:29;;;;;;;3.25;0.80;;;18.70;99.90;;;;;;10248191;28;20056;-59
2022/07/31 03:51:31;;;;;;;3.55;0.70;;;18.50;99.90;;;;;;10237755;28;20059;-64
2022/07/31 03:56:33;;;;;;;2.10;0.80;;;18.50;99.90;;;;;;10273043;28;20058;-63
2022/07/31 04:01:35;;;;;;;4.68;1.17;;;18.50;99.90;;;;;;10257235;28;20043;-63
2022/07/31 04:06:57;;;;;;;1.75;0.73;;;18.50;99.90;;;;;;10262145;28;20568;-65
2022/07/31 04:11:59;;;;;;;4.07;0.85;;;18.50;99.90;;;;;;10296950;28;20116;-63
2022/07/31 04:17:01;;;;;;;0.82;0.60;;;18.50;99.90;;;;;;10293428;28;20054;-63
2022/07/31 04:22:03;;;;;;;1.73;0.73;;;18.50;99.90;;;;;;10309119;28;20050;-64
2022/07/31 04:27:05;;;;;;;2.35;0.70;;;18.60;99.90;;;;;;10300669;28;20050;-64
2022/07/31 04:32:13;;;;;;;2.63;0.70;;;18.60;99.90;;;;;;10295547;28;20042;-65
2022/07/31 04:37:18;;;;;;;1.17;0.77;;;18.70;99.90;;;;;;10306443;28;20418;-63
2022/07/31 04:42:20;;;;;;;3.00;0.55;;;18.70;99.90;;;;;;10295398;28;20043;-63
2022/07/31 04:47:22;;;;;;;3.10;0.80;;;18.80;99.90;;;;;;10310160;28;20047;-62
2022/07/31 04:52:23;;;;;;;3.22;0.80;;;18.90;99.90;;;;;;10306958;28;20053;-64
2022/07/31 04:57:25;;;;;;;2.03;0.80;;;19.10;99.90;;;;;;10305895;28;20047;-63
2022/07/31 05:02:27;;;;;;;1.10;0.70;;;19.10;99.90;;;;;;10296524;28;20054;-63
2022/07/31 05:07:29;;;;;;;4.47;0.82;;;19.30;99.90;;;;;;10289994;28;20112;-62
2022/07/31 05:12:31;;;;;;;5.22;0.95;;;19.30;99.90;;;;;;10295092;28;20069;-63
2022/07/31 05:17:32;;;;;;;1.42;0.85;;;19.50;99.90;;;;;;10302330;28;20058;-63
2022/07/31 05:22:34;;;;;;;7.30;0.90;;;19.60;99.90;;;;;;10297982;28;20070;-63
2022/07/31 05:27:36;;;;;;;1.13;0.85;;;19.70;99.90;;;;;;10305769;28;20049;-62
2022/07/31 05:32:42;;;;;;;2.23;0.87;;;19.80;99.90;;;;;;10304038;28;20124;-63
2022/07/31 05:37:43;;;;;;;2.58;0.60;;;19.90;99.90;;;;;;10291704;28;20053;-63
2022/07/31 05:42:45;;;;;;;2.42;0.85;;;20.00;99.90;;;;;;10304313;28;20469;-63
2022/07/31 05:47:47;;;;;;;1.00;0.60;;;20.10;99.90;;;;;;10303892;28;20053;-63
2022/07/31 05:52:48;;;;;;;3.38;0.80;;;20.20;99.90;;;;;;10310172;28;20054;-64
2022/07/31 05:57:50;;;;;;;3.15;0.68;;;20.30;99.90;;;;;;10291898;28;20058;-63
2022/07/31 06:02:52;;;;;;;3.60;0.88;;;20.30;99.90;;;;;;10288738;28;20412;-63
2022/07/31 06:07:54;;;;;;;6.20;0.90;;;20.40;99.90;;;;;;10285987;28;20050;-64
2022/07/31 06:12:56;;;;;;;1.45;0.90;;;20.50;99.90;;;;;;10264245;28;20741;-64
2022/07/31 06:17:58;;;;;;;1.33;0.70;;;20.50;99.90;;;;;;10269055;28;20050;-63
2022/07/31 06:23:00;;;;;;;1.40;0.90;;;20.50;99.90;;;;;;10269036;28;20058;-64
2022/07/31 06:28:01;;;;;;;3.00;0.85;;;20.70;99.90;;;;;;10269278;28;20043;-63
2022/07/31 06:33:11;;;;;;;1.35;0.90;;;20.70;99.90;;;;;;10264742;28;20117;-63
2022/07/31 06:38:32;;;;;;;2.63;1.08;;;20.80;99.90;;;;;;10268891;28;20105;-64
2022/07/31 06:43:34;;;;;;;1.60;0.98;;;20.80;99.90;;;;;;10266614;28;20113;-64
2022/07/31 06:48:36;;;;;;;6.18;1.20;;;20.80;99.90;;;;;;10266481;28;20051;-63
2022/07/31 06:53:37;;;;;;;3.08;0.90;;;20.90;99.90;;;;;;10262508;28;20105;-63
2022/07/31 06:58:39;;;;;;;4.85;1.30;;;21.00;99.90;;;;;;10265700;28;20046;-64
2022/07/31 07:03:40;;;;;;;1.40;1.00;;;21.10;99.90;;;;;;10265250;28;20047;-63
2022/07/31 07:08:42;;;;;;;2.17;0.93;;;21.40;99.90;;;;;;10282165;28;20042;-63
2022/07/31 07:13:44;;;;;;;2.90;0.90;;;21.20;99.90;;;;;;10294002;28;20125;-63
2022/07/31 07:18:48;;;;;;;1.65;0.85;;;21.40;99.90;;;;;;10305913;28;20046;-64
2022/07/31 07:23:49;;;;;;;7.82;1.35;;;21.50;99.90;;;;;;10304666;28;20039;-63
2022/07/31 07:28:51;;;;;;;8.00;0.90;;;21.70;99.90;;;;;;10311042;28;20046;-63
2022/07/31 07:33:54;;;;;;;5.00;1.05;;;22.10;99.90;;;;;;10303016;28;20047;-63
2022/07/31 07:38:56;;;;;;;4.82;1.20;;;22.00;99.50;;;;;;10309291;28;20050;-63
2022/07/31 07:43:58;;;;;;;4.00;1.13;;;22.20;99.20;;;;;;10300289;28;20042;-62
2022/07/31 07:49:00;;;;;;;3.40;1.50;;;22.10;99.00;;;;;;10305638;28;20054;-63
2022/07/31 07:54:02;;;;;;;1.40;1.00;;;21.90;99.00;;;;;;10310190;28;20501;-63
2022/07/31 07:59:04;;;;;;;1.95;1.17;;;22.00;99.90;;;;;;10286904;28;20389;-64
2022/07/31 08:04:15;;;;;;;1.92;1.27;;;22.30;99.90;;;;;;10310616;28;20137;-64
2022/07/31 08:09:19;;;;;;;3.35;1.25;;;22.40;99.90;;;;;;10283630;28;20390;-64
2022/07/31 08:14:21;;;;;;;4.07;1.20;;;22.70;99.90;;;;;;10318551;28;20050;-61
2022/07/31 08:19:22;;;;;;;1.70;0.93;;;22.20;99.50;;;;;;10325196;28;20045;-64
2022/07/31 08:24:24;;;;;;;2.05;0.90;;;22.60;99.90;;;;;;10312865;28;20058;-65
2022/07/31 08:29:27;;;;;;;2.63;1.58;;;22.70;99.90;;;;;;10320198;28;20058;-64
2022/07/31 08:34:29;;;;;;;2.72;1.10;;;22.80;99.90;;;;;;10315515;28;20054;-65
2022/07/31 08:39:33;;;;;;;1.33;1.13;;;23.00;99.90;;;;;;10316822;28;20056;-64
2022/07/31 08:44:35;;;;;;;4.00;1.02;;;23.10;99.90;;;;;;10324266;28;20046;-64
2022/07/31 08:49:46;;;;;;;5.97;1.20;;;23.40;99.90;;;;;;10321437;28;20043;-64
2022/07/31 08:54:50;;;;;;;1.75;1.15;;;23.50;99.90;;;;;;10316922;28;20057;-64
2022/07/31 08:59:53;;;;;;;1.88;1.00;;;23.90;99.90;;;;;;10315264;28;20081;-64
2022/07/31 09:04:55;;;;;;;2.70;1.20;;;23.70;99.90;;;;;;10314194;28;20065;-65
2022/07/31 09:09:57;;;;;;;2.08;1.00;;;23.80;99.90;;;;;;10298568;28;20058;-65
2022/07/31 09:14:59;;;;;;;1.88;1.08;;;24.00;99.90;;;;;;10285959;28;20062;-64
2022/07/31 09:20:02;;;;;;;4.60;1.10;;;24.00;99.80;;;;;;10285801;28;20196;-64
2022/07/31 09:25:17;;;;;;;2.50;1.17;;;24.60;99.50;;;;;;10297158;28;20413;-64
2022/07/31 09:30:19;;;;;;;2.63;1.00;;;24.60;99.00;;;;;;10272929;28;20058;-64
2022/07/31 09:35:20;;;;;;;2.40;0.70;;;25.00;98.30;;;;;;10297512;28;20486;-64
2022/07/31 09:40:33;;;;;;;1.45;0.60;;;25.30;98.10;;;;;;10293001;28;20489;-64
2022/07/31 09:45:35;;;;;;;1.30;0.60;;;25.50;96.40;;;;;;10294691;28;20359;-64
2022/07/31 09:51:15;;;;;;;6.53;0.73;;;25.60;95.80;;;;;;10282058;28;20658;-64
2022/07/31 09:56:17;;;;;;;3.42;0.80;;;26.00;95.80;;;;;;10299825;28;20046;-64
2022/07/31 10:01:19;;;;;;;1.33;0.68;;;26.00;94.60;;;;;;10299185;28;20050;-65
2022/07/31 10:06:23;;;;;;;1.95;0.60;;;26.30;94.20;;;;;;10284817;28;20499;-65
2022/07/31 10:11:27;;;;;;;2.13;0.70;;;26.10;92.90;;;;;;10293690;28;20112;-65
2022/07/31 10:16:33;;;;;;;2.63;0.50;;;26.30;92.70;;;;;;10295141;28;20105;-64
2022/07/31 10:21:40;;;;;;;1.17;0.60;;;26.10;92.10;;;;;;10281199;28;20482;-65
2022/07/31 10:26:41;;;;;;;0.90;0.70;;;26.40;91.70;;;;;;10283209;28;20063;-65
2022/07/31 10:32:02;;;;;;;2.38;1.20;;;26.30;91.40;;;;;;10297546;28;20053;-64
2022/07/31 10:37:13;;;;;;;1.00;0.45;;;26.30;93.10;;;;;;10293821;28;20050;-64
2022/07/31 10:42:46;;;;;;;1.17;0.52;;;26.30;91.90;;;;;;10288650;28;20399;-64
2022/07/31 10:47:59;;;;;;;1.10;0.43;;;26.40;91.90;;;;;;10264678;28;20058;-64
2022/07/31 10:53:08;;;;;;;0.95;0.40;;;26.40;91.50;;;;;;10283388;28;20058;-63
2022/07/31 10:58:12;;;;;;;2.38;0.47;;;26.70;91.50;;;;;;10301184;28;20046;-64
2022/07/31 11:03:17;;;;;;;3.72;0.60;;;26.90;91.10;;;;;;10312783;28;20406;-65
2022/07/31 11:08:18;;;;;;;1.85;0.40;;;26.90;91.10;;;;;;10282059;28;20069;-64
2022/07/31 11:13:22;;;;;;;2.35;0.65;;;27.00;91.00;;;;;;10295911;28;20058;-64
2022/07/31 11:18:34;;;;;;;2.08;0.50;;;26.80;90.90;;;;;;10301137;28;20050;-62
2022/07/31 11:23:36;;;;;;;1.45;0.50;;;27.10;90.80;;;;;;10288113;28;20578;-63
2022/07/31 11:28:37;;;;;;;4.05;0.57;;;26.90;90.80;;;;;;10298764;28;20986;-63
2022/07/31 11:33:45;;;;;;;1.40;0.52;;;27.00;91.10;;;;;;10287803;28;20046;-63
2022/07/31 11:38:49;;;;;;;1.48;0.50;;;27.30;90.80;;;;;;10307153;28;20069;-63
2022/07/31 11:43:52;;;;;;;1.95;0.60;;;27.30;91.10;;;;;;10291809;28;20959;-63
2022/07/31 11:48:55;;;;;;;3.47;0.52;;;27.30;90.40;;;;;;10299571;28;20401;-66
2022/07/31 11:53:58;;;;;;;1.02;0.43;;;27.30;90.40;;;;;;10278224;28;20671;-63
2022/07/31 11:58:59;;;;;;;0.90;0.45;;;27.80;90.20;;;;;;10304786;28;20061;-63
2022/07/31 12:04:02;;;;;;;1.08;0.47;;;27.70;89.40;;;;;;10298251;28;20133;-63
2022/07/31 12:09:10;;;;;;;3.00;0.60;;;27.70;90.00;;;;;;10297016;28;20050;-64
2022/07/31 12:14:34;;;;;;;1.50;0.50;;;27.70;90.00;;;;;;10283316;28;20046;-64
2022/07/31 12:19:36;;;;;;;4.15;0.52;;;28.00;90.20;;;;;;10282939;28;20070;-64
2022/07/31 12:24:39;;;;;;;2.08;0.60;;;28.20;88.70;;;;;;10292112;28;20576;-64
2022/07/31 12:29:41;;;;;;;1.80;0.60;;;28.20;87.70;;;;;;10294118;28;20051;-64
2022/07/31 12:34:43;;;;;;;1.75;0.50;;;28.50;88.20;;;;;;10275702;28;20059;-64
2022/07/31 12:39:51;;;;;;;1.67;0.50;;;28.90;86.70;;;;;;10294218;28;20054;-64
2022/07/31 12:45:02;;;;;;;1.95;0.50;;;29.60;87.40;;;;;;10304047;28;20130;-64
2022/07/31 12:50:22;;;;;;;1.92;0.50;;;30.20;83.50;;;;;;10289923;28;20117;-64
2022/07/31 12:55:24;;;;;;;3.15;0.60;;;30.40;85.70;;;;;;10285717;28;20417;-64
2022/07/31 13:00:26;;;;;;;0.98;0.50;;;31.00;82.50;;;;;;10306397;28;20046;-64
2022/07/31 13:05:28;;;;;;;1.55;0.40;;;30.70;80.70;;;;;;10285662;28;20049;-63
2022/07/31 13:10:30;;;;;;;1.15;0.38;;;30.80;80.50;;;;;;10301238;28;20038;-65
2022/07/31 13:15:33;;;;;;;0.80;0.40;;;31.20;80.40;;;;;;10290075;28;20043;-64
2022/07/31 13:20:34;;;;;;;1.25;0.85;;;30.60;78.80;;;;;;10293377;28;20058;-64
2022/07/31 13:25:36;;;;;;;1.00;0.40;;;30.50;80.20;;;;;;10303790;28;20046;-64
2022/07/31 13:30:38;;;;;;;0.60;0.40;;;30.60;79.50;;;;;;10298138;28;20112;-65
2022/07/31 13:35:40;;;;;;;4.25;0.40;;;30.30;78.20;;;;;;10302740;28;20409;-64
2022/07/31 13:46:02;;;;;;;0.95;0.40;;;30.20;78.80;;;;;;10304550;28;20054;-64
2022/07/31 13:51:05;;;;;;;0.63;0.40;;;30.00;78.00;;;;;;10297834;28;20085;-64
2022/07/31 13:56:06;;;;;;;3.00;0.40;;;29.70;69.70;;;;;;10306244;28;20054;-65
2022/07/31 14:01:08;;;;;;;3.97;0.40;;;29.70;70.40;;;;;;10302193;28;20050;-63
2022/07/31 14:06:10;;;;;;;0.70;0.40;;;29.50;70.20;;;;;;10300940;28;22717;-65
2022/07/31 14:11:11;;;;;;;0.70;0.47;;;29.40;70.80;;;;;;10295517;28;20046;-65
2022/07/31 14:16:15;;;;;;;0.70;0.40;;;29.50;70.40;;;;;;10284262;28;20140;-65
2022/07/31 14:21:17;;;;;;;0.70;0.43;;;29.50;70.80;;;;;;10296210;28;20073;-67
2022/07/31 14:26:19;;;;;;;0.50;0.40;;;29.40;70.10;;;;;;10298208;28;20046;-64
2022/07/31 14:31:20;;;;;;;0.98;0.30;;;29.40;70.80;;;;;;10299390;28;20100;-65
2022/07/31 14:36:22;;;;;;;1.98;0.40;;;29.50;69.70;;;;;;10308547;28;20492;-65
2022/07/31 14:41:24;;;;;;;0.73;0.30;;;29.30;68.60;;;;;;10314300;28;20057;-64
2022/07/31 14:46:25;;;;;;;1.35;0.30;;;29.20;69.60;;;;;;10298277;28;20042;-63
2022/07/31 14:51:28;;;;;;;1.55;0.30;;;29.20;78.50;;;;;;10296545;28;20046;-64
2022/07/31 14:56:30;;;;;;;0.82;0.30;;;29.30;78.70;;;;;;10283127;28;20054;-62
2022/07/31 15:01:52;;;;;;;1.48;0.30;;;29.60;78.90;;;;;;10296351;28;20058;-63
2022/07/31 15:06:53;;;;;;;3.05;0.50;;;29.50;80.10;;;;;;10279199;28;20510;-63
2022/07/31 15:12:15;;;;;;;2.75;0.30;;;29.80;80.70;;;;;;10254071;28;20062;-63
2022/07/31 15:17:17;;;;;;;0.65;0.40;;;30.00;79.80;;;;;;10254770;28;20415;-64
2022/07/31 15:22:19;;;;;;;3.08;0.50;;;30.20;79.00;;;;;;10258479;28;20059;-64
2022/07/31 15:27:21;;;;;;;1.60;0.65;;;30.10;77.90;;;;;;10258819;28;20046;-63
2022/07/31 15:32:22;;;;;;;0.45;0.40;;;31.00;77.90;;;;;;10244035;28;20053;-63
2022/07/31 15:37:24;;;;;;;1.73;0.30;;;31.50;76.60;;;;;;10262872;28;20047;-62
2022/07/31 15:42:26;;;;;;;1.95;0.30;;;32.40;75.30;;;;;;10270589;28;20047;-63
2022/07/31 15:47:28;;;;;;;0.63;0.30;;;32.10;75.50;;;;;;10266953;28;20066;-63
2022/07/31 15:52:29;;;;;;;0.73;0.30;;;31.90;75.90;;;;;;10269213;28;20054;-63
2022/07/31 15:57:32;;;;;;;2.47;0.40;;;31.60;76.10;;;;;;10270821;28;20474;-63
2022/07/31 16:02:33;;;;;;;2.17;0.40;;;31.60;77.20;;;;;;10269788;28;20038;-63
2022/07/31 16:07:35;;;;;;;2.60;0.40;;;31.30;77.60;;;;;;10283460;28;20062;-63
2022/07/31 16:12:57;;;;;;;2.97;0.32;;;30.80;78.70;;;;;;10306570;28;20521;-63
2022/07/31 16:17:59;;;;;;;1.80;0.30;;;31.70;78.80;;;;;;10303550;28;20105;-63
2022/07/31 16:23:01;;;;;;;0.70;0.30;;;32.40;77.60;;;;;;10300729;28;20050;-63
2022/07/31 16:28:03;;;;;;;0.68;0.30;;;32.40;77.50;;;;;;10311307;28;20057;-62
2022/07/31 16:33:05;;;;;;;1.45;0.30;;;32.50;76.40;;;;;;10306399;28;20061;-63
2022/07/31 16:38:07;;;;;;;0.73;0.25;;;32.40;76.50;;;;;;10292283;28;20137;-63
2022/07/31 16:43:08;;;;;;;0.85;0.20;;;32.10;77.30;;;;;;10296570;28;20055;-63
2022/07/31 16:48:30;;;;;;;2.70;0.40;;;32.60;76.50;;;;;;10305839;28;20093;-63
2022/07/31 16:53:32;;;;;;;0.65;0.30;;;32.00;77.70;;;;;;10296597;28;20042;-63
2022/07/31 16:58:54;;;;;;;0.28;0.20;;;32.80;77.00;;;;;;10307034;28;20059;-63
2022/07/31 17:03:57;;;;;;;0.40;0.20;;;32.50;77.10;;;;;;10306520;28;20046;-63
2022/07/31 17:09:08;;;;;;;2.58;0.30;;;32.70;77.30;;;;;;10270550;28;20051;-64
2022/07/31 17:14:20;;;;;;;0.60;0.30;;;32.30;77.40;;;;;;10268656;28;20058;-62
2022/07/31 17:19:24;;;;;;;0.33;0.20;;;32.10;78.00;;;;;;10283242;28;20058;-63
2022/07/31 17:24:49;;;;;;;0.28;0.20;;;31.90;78.10;;;;;;10274135;28;20164;-63
2022/07/31 17:29:52;;;;;;;1.35;0.20;;;31.80;78.50;;;;;;10253699;28;20760;-64
2022/07/31 17:34:53;;;;;;;0.22;0.20;;;31.60;78.30;;;;;;10266313;28;20051;-64
2022/07/31 17:39:55;;;;;;;0.47;0.22;;;31.20;78.70;;;;;;10270219;28;20047;-64
2022/07/31 17:45:00;;;;;;;0.50;0.20;;;30.90;79.40;;;;;;10271330;28;20070;-64
2022/07/31 17:50:03;;;;;;;1.00;0.30;;;30.40;67.40;;;;;;10257522;28;20056;-65
2022/07/31 17:55:06;;;;;;;0.82;0.20;;;30.20;68.40;;;;;;10274729;28;20108;-65
2022/07/31 18:00:08;;;;;;;0.63;0.40;;;29.90;68.90;;;;;;10269972;28;20050;-65
2022/07/31 18:05:10;;;;;;;1.88;0.35;;;29.70;69.80;;;;;;10256552;28;20366;-64
2022/07/31 18:10:12;;;;;;;4.38;0.40;;;29.20;70.80;;;;;;10270677;28;20043;-64
2022/07/31 18:15:14;;;;;;;1.17;0.30;;;29.20;71.50;;;;;;10271398;28;20042;-65
2022/07/31 18:20:18;;;;;;;0.60;0.30;;;29.10;72.30;;;;;;10271067;28;20047;-65
2022/07/31 18:25:19;;;;;;;0.80;0.40;;;29.00;85.70;;;;;;10263471;28;20054;-65
2022/07/31 18:30:22;;;;;;;0.73;0.38;;;28.90;86.30;;;;;;10263812;28;20044;-64
2022/07/31 18:35:30;;;;;;;2.90;0.50;;;28.70;87.40;;;;;;10268465;28;20038;-65
2022/07/31 18:40:32;;;;;;;1.40;0.40;;;28.70;88.30;;;;;;10272356;28;20061;-65
2022/07/31 18:45:34;;;;;;;2.00;0.30;;;28.50;88.80;;;;;;10278781;28;20047;-65
2022/07/31 18:50:42;;;;;;;2.45;0.40;;;28.50;89.50;;;;;;10261289;28;20051;-65
2022/07/31 18:56:03;;;;;;;0.50;0.30;;;28.40;89.90;;;;;;10218072;28;20163;-65
2022/07/31 19:01:05;;;;;;;1.02;0.40;;;28.20;90.00;;;;;;10271335;28;20046;-65
2022/07/31 19:06:07;;;;;;;0.43;0.30;;;28.00;78.10;;;;;;10243781;28;20117;-65
2022/07/31 19:11:10;;;;;;;0.90;0.40;;;27.90;78.10;;;;;;10286189;28;20063;-65
2022/07/31 19:16:12;;;;;;;1.17;0.40;;;27.80;78.50;;;;;;10290774;28;20094;-60
2022/07/31 19:21:17;;;;;;;0.52;0.30;;;27.60;79.30;;;;;;10289464;28;20062;-61
2022/07/31 19:26:38;;;;;;;0.40;0.30;;;27.50;79.80;;;;;;10297887;28;20128;-60
2022/07/31 19:31:40;;;;;;;0.63;0.30;;;27.30;80.20;;;;;;10294556;28;20050;-60
2022/07/31 19:36:42;;;;;;;1.05;0.30;;;27.20;81.00;;;;;;10293698;28;20046;-60
2022/07/31 19:41:44;;;;;;;0.50;0.30;;;27.20;91.70;;;;;;10301755;28;20061;-60
2022/07/31 19:47:05;;;;;;;0.30;0.20;;;27.00;92.10;;;;;;10291435;28;20051;-60
2022/07/31 19:52:07;;;;;;;1.65;0.28;;;26.90;92.30;;;;;;10308318;28;20405;-59
2022/07/31 19:57:09;;;;;;;1.27;0.43;;;26.90;92.80;;;;;;10297820;28;20085;-60
2022/07/31 20:02:11;;;;;;;0.57;0.50;;;26.60;93.30;;;;;;10288215;28;20078;-60
2022/07/31 20:07:17;;;;;;;0.77;0.38;;;26.40;93.80;;;;;;10306485;28;20065;-60
2022/07/31 20:12:19;;;;;;;1.50;0.38;;;26.40;94.20;;;;;;10303614;28;20194;-60
2022/07/31 20:17:21;;;;;;;1.63;0.40;;;26.30;94.50;;;;;;10291672;28;20054;-60
2022/07/31 20:22:22;;;;;;;1.10;0.50;;;26.10;94.70;;;;;;10286972;28;20055;-61
2022/07/31 20:27:24;;;;;;;4.15;0.45;;;26.10;95.00;;;;;;10294234;28;20054;-59
2022/07/31 20:32:26;;;;;;;2.05;0.40;;;26.00;95.30;;;;;;10293021;28;20043;-59
2022/07/31 20:37:29;;;;;;;0.50;0.30;;;26.00;95.50;;;;;;10297392;28;20109;-59
2022/07/31 20:42:31;;;;;;;1.25;0.40;;;25.90;95.60;;;;;;10289226;28;20076;-60
2022/07/31 20:47:32;;;;;;;0.57;0.40;;;25.80;95.90;;;;;;10292542;28;20046;-60
2022/07/31 20:52:34;;;;;;;0.85;0.40;;;25.70;96.20;;;;;;10297660;28;20050;-60
2022/07/31 20:57:36;;;;;;;0.73;0.30;;;25.60;96.50;;;;;;10286355;28;20054;-60
2022/07/31 21:02:38;;;;;;;0.65;0.40;;;25.50;97.00;;;;;;10294052;28;20057;-60
2022/07/31 21:07:39;;;;;;;0.52;0.30;;;25.30;97.00;;;;;;10271674;28;20054;-60
2022/07/31 21:12:41;;;;;;;1.83;0.50;;;25.40;96.90;;;;;;10253054;28;20069;-60
2022/07/31 21:17:43;;;;;;;1.85;0.30;;;25.40;97.20;;;;;;10260242;28;20046;-60
2022/07/31 21:22:45;;;;;;;0.35;0.30;;;25.30;91.60;;;;;;10263219;28;20651;-60
2022/07/31 21:27:46;;;;;;;0.43;0.40;;;25.30;91.80;;;;;;10254700;28;20063;-60
2022/07/31 21:32:48;;;;;;;0.70;0.40;;;25.20;92.10;;;;;;10248803;28;20577;-61
2022/07/31 21:37:51;;;;;;;0.70;0.40;;;25.10;92.30;;;;;;10253467;28;20058;-60
2022/07/31 21:42:57;;;;;;;1.65;0.30;;;25.00;92.60;;;;;;10254059;28;20047;-59
2022/07/31 21:48:08;;;;;;;1.52;0.40;;;24.90;92.90;;;;;;10254756;28;20181;-59
2022/07/31 21:53:11;;;;;;;0.40;0.30;;;24.80;93.30;;;;;;10241139;28;20039;-59
2022/07/31 21:58:16;;;;;;;3.03;0.45;;;24.70;93.60;;;;;;10246870;28;20054;-59
2022/07/31 22:03:18;;;;;;;0.40;0.40;;;24.60;94.00;;;;;;10266557;28;20050;-60
2022/07/31 22:08:20;;;;;;;3.35;0.35;;;24.50;94.40;;;;;;10275870;28;20561;-60
2022/07/31 22:13:21;;;;;;;1.00;0.60;;;24.40;94.80;;;;;;10296208;28;20449;-60
2022/07/31 22:18:23;;;;;;;2.22;0.30;;;24.40;95.10;;;;;;10290611;28;20519;-61
2022/07/31 22:23:27;;;;;;;1.55;0.30;;;24.40;95.40;;;;;;10290654;28;20117;-60
2022/07/31 22:28:30;;;;;;;0.90;0.30;;;24.30;95.70;;;;;;10284596;28;20354;-60
2022/07/31 22:33:32;;;;;;;1.17;0.40;;;24.30;96.00;;;;;;10278800;28;20093;-59
2022/07/31 22:38:34;;;;;;;0.80;0.30;;;24.20;96.20;;;;;;10280094;28;20086;-60
2022/07/31 22:43:35;;;;;;;0.52;0.30;;;24.20;96.50;;;;;;10286922;28;20061;-60
2022/07/31 22:48:57;;;;;;;0.60;0.38;;;24.10;96.70;;;;;;10283809;28;20047;-60
2022/07/31 22:53:59;;;;;;;1.63;0.20;;;24.10;97.00;;;;;;10283194;28;20105;-59
2022/07/31 22:59:01;;;;;;;1.25;0.30;;;24.00;97.20;;;;;;10278767;28;20055;-60
2022/07/31 23:04:03;;;;;;;1.02;0.20;;;24.00;97.70;;;;;;10286093;28;20051;-59
2022/07/31 23:09:04;;;;;;;0.30;0.28;;;23.90;97.90;;;;;;10283625;28;20116;-60
2022/07/31 23:14:06;;;;;;;2.80;0.22;;;23.90;98.20;;;;;;10275939;28;20055;-60
2022/07/31 23:19:08;;;;;;;1.67;0.30;;;23.80;98.60;;;;;;10271672;28;20105;-60
2022/07/31 23:24:10;;;;;;;1.10;0.20;;;23.70;99.10;;;;;;10292625;28;20054;-60
2022/07/31 23:29:12;;;;;;;0.75;0.20;;;23.70;99.40;;;;;;10277848;28;20055;-60
2022/07/31 23:34:17;;;;;;;0.40;0.20;;;23.60;99.80;;;;;;10276196;28;20078;-59
2022/07/31 23:39:21;;;;;;;1.05;0.20;;;23.50;99.90;;;;;;10281553;28;20591;-60
2022/07/31 23:44:24;;;;;;;0.65;0.20;;;23.40;99.90;;;;;;10271864;28;20050;-60
2022/07/31 23:49:26;;;;;;;0.30;0.20;;;23.40;99.90;;;;;;10285042;28;20049;-60
2022/07/31 23:54:27;;;;;;;4.57;0.10;;;23.30;99.90;;;;;;10280840;28;20038;-60
2022/07/31 23:59:30;;;;;;;0.30;0.17;;;23.20;99.90;;;;;;10278722;28;20047;-60
